createdAt,value
2018-02-20T00:00:35.475Z,0.92
2018-02-20T00:03:04.713Z,0.96
2018-02-20T00:05:34.087Z,1.03
2018-02-20T00:08:03.335Z,1.14
2018-02-20T00:10:33.334Z,1.16
2018-02-20T00:13:03.356Z,1.16
2018-02-20T00:15:33.362Z,1.19
2018-02-20T00:18:02.627Z,1.16
2018-02-20T00:20:32.162Z,1.08
2018-02-20T00:23:04.390Z,0.98
2018-02-20T00:25:33.679Z,0.92
2018-02-20T00:28:03.682Z,0.88
2018-02-20T00:30:32.931Z,0.90
2018-02-20T00:33:02.163Z,0.90
2018-02-20T00:35:32.261Z,0.90
2018-02-20T00:38:01.497Z,0.90
2018-02-20T00:40:30.711Z,0.86
2018-02-20T00:43:00.681Z,0.84
2018-02-20T00:45:29.974Z,0.81
2018-02-20T00:47:59.992Z,0.83
2018-02-20T00:50:29.412Z,0.79
2018-02-20T00:52:59.419Z,0.78
2018-02-20T00:55:28.636Z,0.79
2018-02-20T00:57:57.882Z,0.74
2018-02-20T01:00:27.172Z,0.70
2018-02-20T01:02:57.840Z,0.67
2018-02-20T01:05:28.937Z,0.66
2018-02-20T01:07:58.163Z,0.65
2018-02-20T01:10:27.373Z,0.65
2018-02-20T01:12:56.794Z,0.65
2018-02-20T01:15:26.785Z,0.65
2018-02-20T01:17:56.027Z,0.61
2018-02-20T01:20:25.266Z,0.60
2018-02-20T01:22:54.495Z,0.58
2018-02-20T01:25:24.508Z,0.57
2018-02-20T01:27:53.955Z,0.56
2018-02-20T01:30:23.206Z,0.53
2018-02-20T01:32:52.431Z,0.50
2018-02-20T01:35:21.644Z,0.44
2018-02-20T01:37:50.892Z,0.41
2018-02-20T01:40:20.130Z,0.38
2018-02-20T01:42:50.166Z,0.33
2018-02-20T01:45:19.465Z,0.14
2018-02-20T01:47:48.653Z,0.05
2018-02-20T01:50:17.891Z,0.03
2018-02-20T01:52:47.197Z,0.05
2018-02-20T01:55:16.417Z,0.06
2018-02-20T01:57:46.399Z,0.10
2018-02-20T02:00:15.646Z,0.07
2018-02-20T02:02:44.897Z,0.00
2018-02-20T02:05:14.132Z,0.02
2018-02-20T02:07:44.145Z,0.03
2018-02-20T02:10:14.362Z,0.06
2018-02-20T02:12:44.583Z,0.00
2018-02-20T02:15:13.870Z,0.00
2018-02-20T02:17:43.159Z,-0.03
2018-02-20T02:20:12.420Z,-0.04
2018-02-20T02:22:42.425Z,-0.02
2018-02-20T02:25:11.672Z,-0.03
2018-02-20T02:27:40.884Z,-0.05
2018-02-20T02:30:10.231Z,-0.11
2018-02-20T02:32:39.468Z,-0.10
2018-02-20T02:35:08.737Z,-0.13
2018-02-20T02:37:37.966Z,-0.10
2018-02-20T02:40:07.212Z,-0.10
2018-02-20T02:42:36.470Z,-0.15
2018-02-20T02:45:05.682Z,-0.16
2018-02-20T02:47:35.681Z,-0.18
2018-02-20T02:50:04.975Z,-0.19
2018-02-20T02:52:34.203Z,-0.20
2018-02-20T02:55:03.442Z,-0.21
2018-02-20T02:57:32.671Z,-0.17
2018-02-20T03:00:01.918Z,-0.17
2018-02-20T03:02:31.153Z,-0.15
2018-02-20T03:05:00.388Z,-0.12
2018-02-20T03:07:30.403Z,-0.11
2018-02-20T03:09:59.689Z,-0.07
2018-02-20T03:12:29.718Z,-0.05
2018-02-20T03:14:59.751Z,-0.04
2018-02-20T03:17:29.799Z,-0.01
2018-02-20T03:19:59.046Z,0.03
2018-02-20T03:22:28.280Z,-0.04
2018-02-20T03:24:57.498Z,-0.01
2018-02-20T03:27:26.843Z,-0.01
2018-02-20T03:29:56.183Z,-0.11
2018-02-20T03:32:25.383Z,-0.21
2018-02-20T03:34:54.629Z,-0.24
2018-02-20T03:37:23.886Z,-0.39
2018-02-20T03:39:53.132Z,-0.51
2018-02-20T03:42:22.332Z,-0.52
2018-02-20T03:44:51.590Z,-0.48
2018-02-20T03:47:20.878Z,-0.44
2018-02-20T03:49:50.141Z,-0.46
2018-02-20T03:52:20.134Z,-0.45
2018-02-20T03:54:49.656Z,-0.49
2018-02-20T03:57:19.674Z,-0.48
2018-02-20T03:59:49.707Z,-0.48
2018-02-20T04:02:18.924Z,-0.49
2018-02-20T04:04:48.258Z,-0.48
2018-02-20T04:07:18.404Z,-0.45
2018-02-20T04:09:48.391Z,-0.44
2018-02-20T04:12:17.754Z,-0.51
2018-02-20T04:14:47.232Z,-0.52
2018-02-20T04:17:17.235Z,-0.51
2018-02-20T04:19:47.238Z,-0.65
2018-02-20T04:22:16.544Z,-0.78
2018-02-20T04:24:45.943Z,-0.80
2018-02-20T04:27:16.023Z,-0.84
2018-02-20T04:29:45.288Z,-0.85
2018-02-20T04:32:14.535Z,-0.84
2018-02-20T04:34:43.774Z,-0.84
2018-02-20T04:37:13.904Z,-0.84
2018-02-20T04:39:44.056Z,-0.84
2018-02-20T04:42:13.304Z,-0.85
2018-02-20T04:44:43.275Z,-0.85
2018-02-20T04:47:12.573Z,-0.84
2018-02-20T04:49:41.971Z,-0.87
2018-02-20T04:52:11.244Z,-0.87
2018-02-20T04:54:40.492Z,-0.89
2018-02-20T04:57:09.736Z,-0.89
2018-02-20T04:59:38.940Z,-0.88
2018-02-20T05:02:08.171Z,-0.89
2018-02-20T05:04:37.468Z,-0.90
2018-02-20T05:07:06.699Z,-0.89
2018-02-20T05:09:35.937Z,-0.88
2018-02-20T05:12:05.216Z,-0.95
2018-02-20T05:14:34.455Z,-0.99
2018-02-20T05:17:03.755Z,-1.06
2018-02-20T05:19:33.020Z,-1.12
2018-02-20T05:22:03.016Z,-1.12
2018-02-20T05:24:33.130Z,-1.12
2018-02-20T05:27:02.352Z,-1.14
2018-02-20T05:29:31.578Z,-1.15
2018-02-20T05:32:00.795Z,-1.13
2018-02-20T05:34:30.086Z,-1.12
2018-02-20T05:37:00.034Z,-1.13
2018-02-20T05:39:29.315Z,-1.14
2018-02-20T05:41:58.563Z,-1.10
2018-02-20T05:44:27.955Z,-1.07
2018-02-20T05:46:57.958Z,-1.15
2018-02-20T05:49:28.229Z,-1.12
2018-02-20T05:51:57.408Z,-1.20
2018-02-20T05:54:26.667Z,-1.19
2018-02-20T05:56:55.884Z,-1.20
2018-02-20T05:59:25.906Z,-1.19
2018-02-20T06:01:55.142Z,-1.12
2018-02-20T06:04:24.382Z,-1.08
2018-02-20T06:06:54.502Z,-1.04
2018-02-20T06:09:23.720Z,-1.04
2018-02-20T06:11:53.754Z,-1.06
2018-02-20T06:14:23.135Z,-1.09
2018-02-20T06:16:53.126Z,-1.06
2018-02-20T06:19:22.548Z,-1.04
2018-02-20T06:21:52.581Z,-1.14
2018-02-20T06:24:22.058Z,-1.25
2018-02-20T06:26:52.139Z,-1.23
2018-02-20T06:29:21.391Z,-1.24
2018-02-20T06:31:51.589Z,-1.24
2018-02-20T06:34:20.819Z,-1.32
2018-02-20T06:36:50.085Z,-1.33
2018-02-20T06:39:19.423Z,-1.31
2018-02-20T06:41:48.662Z,-1.31
2018-02-20T06:44:17.897Z,-1.34
2018-02-20T06:46:47.899Z,-1.32
2018-02-20T06:49:17.098Z,-1.34
2018-02-20T06:51:47.131Z,-1.31
2018-02-20T06:54:16.607Z,-1.29
2018-02-20T06:56:45.869Z,-1.30
2018-02-20T06:59:15.841Z,-1.29
2018-02-20T07:01:45.858Z,-1.28
2018-02-20T07:04:15.870Z,-1.27
2018-02-20T07:06:45.885Z,-1.28
2018-02-20T07:09:15.105Z,-1.31
2018-02-20T07:11:44.343Z,-1.30
2018-02-20T07:14:13.587Z,-1.26
2018-02-20T07:16:43.568Z,-1.23
2018-02-20T07:19:12.812Z,-1.17
2018-02-20T07:21:42.038Z,-1.11
2018-02-20T07:24:11.308Z,-1.04
2018-02-20T07:26:41.485Z,-1.02
2018-02-20T07:29:10.720Z,-0.98
2018-02-20T07:31:40.726Z,-0.96
2018-02-20T07:34:09.998Z,-0.88
2018-02-20T07:36:39.227Z,-0.83
2018-02-20T07:39:09.708Z,-0.80
2018-02-20T07:41:38.945Z,-0.75
2018-02-20T07:44:08.168Z,-0.71
2018-02-20T07:46:37.404Z,-0.60
2018-02-20T07:49:06.649Z,-0.51
2018-02-20T07:51:36.668Z,-0.48
2018-02-20T07:54:06.649Z,-0.35
2018-02-20T07:56:35.887Z,-0.37
2018-02-20T07:59:05.119Z,-0.28
2018-02-20T08:01:34.359Z,-0.24
2018-02-20T08:04:03.625Z,-0.17
2018-02-20T08:06:32.877Z,-0.14
2018-02-20T08:09:02.881Z,-0.05
2018-02-20T08:11:33.026Z,0.07
2018-02-20T08:14:02.307Z,0.10
2018-02-20T08:16:32.530Z,0.17
2018-02-20T08:19:02.634Z,0.20
2018-02-20T08:21:31.865Z,0.30
2018-02-20T08:24:01.102Z,0.47
2018-02-20T08:26:30.355Z,0.58
2018-02-20T08:28:59.607Z,0.53
2018-02-20T08:31:28.875Z,0.63
2018-02-20T08:33:58.097Z,0.76
2018-02-20T08:36:27.338Z,0.86
2018-02-20T08:38:56.746Z,0.93
2018-02-20T08:41:25.951Z,1.00
2018-02-20T08:43:55.213Z,1.05
2018-02-20T08:46:24.415Z,1.13
2018-02-20T08:48:54.400Z,1.25
2018-02-20T08:51:23.608Z,1.29
2018-02-20T08:53:52.844Z,1.44
2018-02-20T08:56:22.857Z,1.57
2018-02-20T08:58:52.857Z,1.71
2018-02-20T09:01:22.056Z,1.76
2018-02-20T09:03:51.351Z,1.78
2018-02-20T09:06:20.755Z,1.98
2018-02-20T09:08:49.954Z,2.06
2018-02-20T09:11:19.205Z,2.01
2018-02-20T09:13:48.435Z,2.07
2018-02-20T09:16:17.650Z,2.16
2018-02-20T09:18:46.845Z,2.24
2018-02-20T09:21:16.066Z,2.27
2018-02-20T09:23:45.288Z,2.26
2018-02-20T09:26:14.670Z,2.28
2018-02-20T09:28:43.874Z,2.29
2018-02-20T09:31:13.088Z,2.27
2018-02-20T09:33:42.283Z,2.34
2018-02-20T09:36:11.503Z,2.39
2018-02-20T09:38:40.693Z,2.48
2018-02-20T09:41:10.000Z,2.53
2018-02-20T09:43:39.198Z,2.49
2018-02-20T09:46:08.445Z,2.50
2018-02-20T09:48:38.424Z,2.52
2018-02-20T09:51:07.655Z,2.57
2018-02-20T09:53:37.629Z,2.63
2018-02-20T09:56:07.150Z,2.71
2018-02-20T09:58:36.386Z,2.76
2018-02-20T10:01:06.570Z,2.79
2018-02-20T10:03:35.801Z,2.83
2018-02-20T10:06:05.023Z,2.81
2018-02-20T10:08:34.270Z,2.85
2018-02-20T10:11:03.499Z,2.91
2018-02-20T10:13:32.723Z,2.94
2018-02-20T10:16:01.948Z,2.97
2018-02-20T10:18:31.181Z,3.06
2018-02-20T10:21:01.180Z,3.11
2018-02-20T10:23:31.210Z,3.18
2018-02-20T10:26:00.620Z,3.18
2018-02-20T10:28:30.631Z,3.27
2018-02-20T10:31:00.604Z,3.33
2018-02-20T10:33:29.831Z,3.37
2018-02-20T10:35:59.047Z,3.38
2018-02-20T10:38:28.311Z,3.46
2018-02-20T10:40:59.038Z,3.52
2018-02-20T10:43:28.279Z,3.51
2018-02-20T10:45:58.310Z,3.52
2018-02-20T10:48:27.549Z,3.62
2018-02-20T10:50:56.818Z,3.76
2018-02-20T10:53:26.033Z,3.99
2018-02-20T10:55:55.252Z,4.32
2018-02-20T10:58:24.457Z,4.58
2018-02-20T11:00:54.491Z,4.57
2018-02-20T11:03:24.551Z,4.50
2018-02-20T11:05:53.776Z,4.40
2018-02-20T11:08:23.155Z,4.35
2018-02-20T11:10:52.441Z,4.35
2018-02-20T11:13:22.299Z,4.36
2018-02-20T11:15:51.475Z,4.34
2018-02-20T11:18:20.750Z,4.26
2018-02-20T11:20:49.982Z,4.26
2018-02-20T11:23:19.194Z,4.25
2018-02-20T11:25:49.214Z,4.28
2018-02-20T11:28:19.191Z,4.28
2018-02-20T11:30:48.523Z,4.28
2018-02-20T11:33:17.732Z,4.29
2018-02-20T11:35:47.739Z,4.26
2018-02-20T11:38:16.967Z,4.27
2018-02-20T11:40:46.185Z,4.28
2018-02-20T11:43:15.406Z,4.30
2018-02-20T11:45:44.672Z,4.41
2018-02-20T11:48:13.894Z,4.53
2018-02-20T11:50:43.103Z,4.60
2018-02-20T11:53:12.374Z,4.68
2018-02-20T11:55:42.311Z,4.70
2018-02-20T11:58:11.551Z,4.67
2018-02-20T12:00:41.527Z,4.71
2018-02-20T12:03:10.947Z,4.78
2018-02-20T12:05:40.239Z,4.77
2018-02-20T12:08:09.519Z,4.89
2018-02-20T12:10:39.443Z,5.04
2018-02-20T12:13:08.829Z,5.10
2018-02-20T12:15:38.106Z,5.10
2018-02-20T12:18:07.344Z,5.11
2018-02-20T12:20:36.709Z,5.13
2018-02-20T12:23:05.964Z,5.17
2018-02-20T12:25:36.854Z,5.27
2018-02-20T12:28:06.826Z,5.24
2018-02-20T12:30:36.819Z,5.22
2018-02-20T12:33:06.059Z,5.19
2018-02-20T12:35:36.158Z,5.17
2018-02-20T12:38:05.392Z,5.06
2018-02-20T12:40:34.622Z,5.04
2018-02-20T12:43:03.844Z,5.08
2018-02-20T12:45:33.093Z,5.18
2018-02-20T12:48:02.360Z,5.20
2018-02-20T12:50:31.543Z,5.19
2018-02-20T12:53:00.764Z,5.12
2018-02-20T12:55:30.764Z,5.04
2018-02-20T12:58:00.772Z,5.03
2018-02-20T13:00:30.800Z,5.01
2018-02-20T13:03:00.804Z,5.01
2018-02-20T13:05:30.891Z,5.00
2018-02-20T13:08:00.283Z,5.03
2018-02-20T13:10:29.559Z,5.05
2018-02-20T13:12:58.854Z,5.03
2018-02-20T13:15:28.086Z,5.06
2018-02-20T13:17:57.421Z,5.08
2018-02-20T13:20:27.521Z,5.17
2018-02-20T13:22:56.809Z,5.18
2018-02-20T13:25:26.039Z,5.23
2018-02-20T13:27:56.033Z,5.22
2018-02-20T13:30:25.263Z,5.21
2018-02-20T13:32:55.272Z,5.18
2018-02-20T13:35:24.525Z,5.18
2018-02-20T13:37:53.744Z,5.19
2018-02-20T13:40:22.960Z,5.19
2018-02-20T13:42:52.197Z,5.16
2018-02-20T13:45:21.427Z,5.12
2018-02-20T13:47:50.801Z,5.10
2018-02-20T13:50:20.019Z,5.05
2018-02-20T13:52:49.253Z,5.04
2018-02-20T13:55:20.818Z,5.05
2018-02-20T13:57:50.092Z,5.02
2018-02-20T14:00:19.304Z,5.04
2018-02-20T14:02:48.536Z,4.98
2018-02-20T14:05:17.759Z,4.98
2018-02-20T14:07:46.977Z,4.96
2018-02-20T14:10:16.222Z,4.99
2018-02-20T14:12:45.431Z,5.03
2018-02-20T14:15:14.737Z,5.01
2018-02-20T14:17:43.973Z,4.95
2018-02-20T14:20:13.277Z,4.97
2018-02-20T14:22:42.492Z,5.00
2018-02-20T14:25:12.534Z,5.07
2018-02-20T14:27:42.527Z,5.19
2018-02-20T14:30:11.735Z,5.23
2018-02-20T14:32:40.961Z,5.33
2018-02-20T14:35:10.195Z,5.42
2018-02-20T14:37:39.443Z,5.45
2018-02-20T14:40:08.691Z,5.42
2018-02-20T14:42:37.898Z,5.43
2018-02-20T14:45:07.935Z,5.45
2018-02-20T14:47:37.922Z,5.40
2018-02-20T14:50:07.197Z,5.36
2018-02-20T14:52:36.409Z,5.36
2018-02-20T14:55:05.654Z,5.45
2018-02-20T14:57:35.808Z,5.50
2018-02-20T15:00:05.048Z,5.50
2018-02-20T15:02:35.040Z,5.52
2018-02-20T15:05:04.459Z,5.56
2018-02-20T15:07:33.813Z,5.53
2018-02-20T15:10:03.047Z,5.48
2018-02-20T15:12:32.342Z,5.38
2018-02-20T15:15:01.696Z,5.36
2018-02-20T15:17:31.707Z,5.39
2018-02-20T15:20:01.814Z,5.41
2018-02-20T15:22:31.069Z,5.45
2018-02-20T15:25:00.293Z,5.48
2018-02-20T15:27:29.523Z,5.48
2018-02-20T15:29:58.903Z,5.46
2018-02-20T15:32:28.925Z,5.41
2018-02-20T15:34:58.939Z,5.35
2018-02-20T15:37:29.135Z,5.31
2018-02-20T15:39:58.411Z,5.29
2018-02-20T15:42:28.375Z,5.29
2018-02-20T15:44:57.698Z,5.30
2018-02-20T15:47:28.919Z,5.29
2018-02-20T15:49:59.246Z,5.32
2018-02-20T15:52:28.445Z,5.25
2018-02-20T15:54:58.446Z,5.23
2018-02-20T15:57:28.427Z,5.23
2018-02-20T15:59:57.678Z,5.19
2018-02-20T16:02:27.674Z,5.16
2018-02-20T16:04:57.671Z,5.15
2018-02-20T16:07:26.944Z,5.14
2018-02-20T16:09:56.193Z,5.12
2018-02-20T16:12:25.408Z,5.11
2018-02-20T16:14:55.396Z,5.07
2018-02-20T16:17:26.195Z,5.03
2018-02-20T16:19:55.623Z,4.96
2018-02-20T16:22:24.859Z,4.89
2018-02-20T16:24:55.034Z,4.81
2018-02-20T16:27:24.377Z,4.77
2018-02-20T16:29:54.448Z,4.72
2018-02-20T16:32:23.640Z,4.66
2018-02-20T16:34:52.864Z,4.58
2018-02-20T16:37:22.077Z,4.56
2018-02-20T16:39:52.070Z,4.50
2018-02-20T16:42:21.451Z,4.50
2018-02-20T16:44:50.681Z,4.44
2018-02-20T16:47:19.894Z,4.38
2018-02-20T16:49:49.916Z,4.37
2018-02-20T16:52:19.156Z,4.32
2018-02-20T16:54:48.621Z,4.22
2018-02-20T16:57:17.847Z,4.17
2018-02-20T16:59:47.267Z,4.13
2018-02-20T17:02:16.556Z,4.06
2018-02-20T17:04:45.777Z,4.04
2018-02-20T17:07:15.036Z,3.97
2018-02-20T17:09:44.245Z,3.94
2018-02-20T17:12:13.492Z,3.89
2018-02-20T17:14:42.691Z,3.86
2018-02-20T17:17:12.013Z,3.79
2018-02-20T17:19:41.225Z,3.76
2018-02-20T17:22:10.457Z,3.73
2018-02-20T17:24:39.688Z,3.66
2018-02-20T17:27:08.948Z,3.61
2018-02-20T17:29:38.187Z,3.58
2018-02-20T17:32:08.177Z,3.55
2018-02-20T17:34:37.394Z,3.49
2018-02-20T17:37:06.596Z,3.45
2018-02-20T17:39:35.819Z,3.45
2018-02-20T17:42:05.070Z,3.40
2018-02-20T17:44:35.098Z,3.33
2018-02-20T17:47:04.365Z,3.30
2018-02-20T17:49:33.584Z,3.26
2018-02-20T17:52:03.047Z,3.22
2018-02-20T17:54:32.262Z,3.19
2018-02-20T17:57:01.472Z,3.16
2018-02-20T17:59:30.736Z,3.17
2018-02-20T18:01:59.963Z,3.12
2018-02-20T18:04:29.357Z,3.11
2018-02-20T18:06:59.323Z,3.11
2018-02-20T18:09:29.328Z,3.02
2018-02-20T18:11:59.392Z,3.02
2018-02-20T18:14:28.630Z,2.98
2018-02-20T18:16:57.903Z,2.95
2018-02-20T18:19:27.139Z,2.88
2018-02-20T18:21:57.131Z,2.83
2018-02-20T18:24:26.445Z,2.78
2018-02-20T18:26:55.660Z,2.79
2018-02-20T18:29:24.891Z,2.74
2018-02-20T18:31:54.171Z,2.71
2018-02-20T18:34:23.413Z,2.67
2018-02-20T18:36:52.645Z,2.65
2018-02-20T18:39:21.910Z,2.63
2018-02-20T18:41:51.137Z,2.63
2018-02-20T18:44:20.349Z,2.61
2018-02-20T18:46:50.335Z,2.60
2018-02-20T18:49:19.556Z,2.58
2018-02-20T18:51:49.773Z,2.55
2018-02-20T18:54:19.799Z,2.48
2018-02-20T18:56:49.812Z,2.44
2018-02-20T18:59:19.799Z,2.46
2018-02-20T19:01:49.054Z,2.42
2018-02-20T19:04:18.265Z,2.38
2018-02-20T19:06:47.555Z,2.34
2018-02-20T19:09:16.773Z,2.29
2018-02-20T19:11:46.004Z,2.27
2018-02-20T19:14:15.504Z,2.23
2018-02-20T19:16:44.742Z,2.20
2018-02-20T19:19:13.971Z,2.14
2018-02-20T19:21:43.210Z,2.06
2018-02-20T19:24:12.481Z,2.06
2018-02-20T19:26:41.820Z,2.01
2018-02-20T19:29:11.822Z,1.97
2018-02-20T19:31:41.832Z,1.98
2018-02-20T19:34:11.108Z,1.94
2018-02-20T19:36:40.331Z,1.89
2018-02-20T19:39:10.388Z,1.85
2018-02-20T19:41:39.959Z,1.85
2018-02-20T19:44:09.998Z,1.84
2018-02-20T19:46:39.535Z,1.88
2018-02-20T19:49:08.915Z,1.90
2018-02-20T19:51:38.112Z,1.96
2018-02-20T19:54:07.358Z,2.01
2018-02-20T19:56:36.582Z,2.02
2018-02-20T19:59:06.775Z,2.04
2018-02-20T20:01:37.530Z,2.03
2018-02-20T20:04:07.663Z,2.03
2018-02-20T20:06:37.694Z,2.01
2018-02-20T20:09:07.075Z,2.01
2018-02-20T20:11:36.278Z,2.01
2018-02-20T20:14:05.612Z,1.99
2018-02-20T20:16:34.864Z,1.97
2018-02-20T20:19:04.890Z,1.81
2018-02-20T20:21:34.901Z,1.81
2018-02-20T20:24:04.159Z,1.79
2018-02-20T20:26:34.171Z,1.76
2018-02-20T20:29:03.440Z,1.72
2018-02-20T20:31:33.513Z,1.66
2018-02-20T20:34:02.772Z,1.66
2018-02-20T20:36:32.001Z,1.62
2018-02-20T20:39:02.083Z,1.57
2018-02-20T20:41:31.413Z,1.54
2018-02-20T20:44:00.656Z,1.52
2018-02-20T20:46:29.992Z,1.50
2018-02-20T20:48:59.225Z,1.47
2018-02-20T20:51:28.480Z,1.41
2018-02-20T20:53:57.847Z,1.40
2018-02-20T20:56:27.833Z,1.35
2018-02-20T20:58:57.087Z,1.36
2018-02-20T21:01:26.320Z,1.34
2018-02-20T21:03:55.574Z,1.28
2018-02-20T21:06:24.847Z,1.21
2018-02-20T21:08:54.218Z,1.16
2018-02-20T21:11:23.506Z,1.15
2018-02-20T21:13:53.733Z,1.19
2018-02-20T21:16:22.973Z,1.19
2018-02-20T21:18:53.706Z,1.24
2018-02-20T21:21:23.738Z,1.26
2018-02-20T21:23:53.025Z,1.30
2018-02-20T21:26:23.011Z,1.30
2018-02-20T21:28:52.359Z,1.31
2018-02-20T21:31:21.594Z,1.28
2018-02-20T21:33:50.829Z,1.28
2018-02-20T21:36:20.055Z,1.29
2018-02-20T21:38:49.282Z,1.27
2018-02-20T21:41:18.509Z,1.26
2018-02-20T21:43:47.781Z,1.23
2018-02-20T21:46:17.795Z,1.14
2018-02-20T21:48:47.131Z,1.16
2018-02-20T21:51:16.345Z,1.14
2018-02-20T21:53:46.608Z,1.09
2018-02-20T21:56:15.861Z,1.10
2018-02-20T21:58:45.845Z,1.08
2018-02-20T22:01:15.133Z,1.08
2018-02-20T22:03:44.374Z,1.05
2018-02-20T22:06:14.153Z,0.94
2018-02-20T22:08:44.110Z,0.89
2018-02-20T22:11:14.192Z,0.91
2018-02-20T22:13:43.447Z,0.88
2018-02-20T22:16:12.674Z,0.86
2018-02-20T22:18:42.719Z,0.88
2018-02-20T22:21:11.939Z,0.87
2018-02-20T22:23:41.232Z,0.86
2018-02-20T22:26:11.390Z,0.88
2018-02-20T22:28:41.360Z,0.88
2018-02-20T22:31:11.351Z,0.89
2018-02-20T22:33:40.615Z,0.90
2018-02-20T22:36:09.836Z,0.85
2018-02-20T22:38:39.194Z,0.82
2018-02-20T22:41:09.190Z,0.78
2018-02-20T22:43:38.428Z,0.72
2018-02-20T22:46:07.713Z,0.68
2018-02-20T22:48:36.974Z,0.59
2018-02-20T22:51:06.192Z,0.53
2018-02-20T22:53:35.472Z,0.50
2018-02-20T22:56:04.739Z,0.53
2018-02-20T22:58:33.940Z,0.53
2018-02-20T23:01:03.181Z,0.48
2018-02-20T23:03:32.517Z,0.54
2018-02-20T23:06:01.770Z,0.60
2018-02-20T23:08:31.787Z,0.62
2018-02-20T23:11:01.067Z,0.65
2018-02-20T23:13:30.322Z,0.77
2018-02-20T23:15:59.543Z,0.87
2018-02-20T23:18:29.565Z,0.92
2018-02-20T23:20:58.865Z,1.04
2018-02-20T23:23:28.105Z,1.12
2018-02-20T23:25:57.315Z,1.18
2018-02-20T23:28:26.565Z,1.16
2018-02-20T23:30:55.829Z,1.17
2018-02-20T23:33:25.071Z,1.22
2018-02-20T23:35:55.275Z,1.34
2018-02-20T23:38:24.509Z,1.39
2018-02-20T23:40:53.705Z,1.44
2018-02-20T23:43:23.718Z,1.49
2018-02-20T23:45:52.924Z,1.44
2018-02-20T23:48:22.920Z,1.54
2018-02-20T23:50:52.416Z,1.60
2018-02-20T23:53:22.437Z,1.63
2018-02-20T23:55:51.615Z,1.72
2018-02-20T23:58:20.839Z,1.70
